createdAt,value
2022-08-28T00:00:16.982Z,2.40
2022-08-28T00:00:51.726Z,2.40
2022-08-28T00:01:26.484Z,2.10
2022-08-28T00:02:01.236Z,2.50
2022-08-28T00:02:36.020Z,2.50
2022-08-28T00:03:10.922Z,2.50
2022-08-28T00:03:45.709Z,2.40
2022-08-28T00:04:20.485Z,2.30
2022-08-28T00:04:55.276Z,2.30
2022-08-28T00:05:30.080Z,2.30
2022-08-28T00:06:04.819Z,2.80
2022-08-28T00:06:39.568Z,2.30
2022-08-28T00:07:14.327Z,2.20
2022-08-28T00:07:49.082Z,2.60
2022-08-28T00:08:23.829Z,2.30
2022-08-28T00:08:58.579Z,1.90
2022-08-28T00:09:33.339Z,2.50
2022-08-28T00:10:08.102Z,2.50
2022-08-28T00:10:42.865Z,2.30
2022-08-28T00:11:17.611Z,2.40
2022-08-28T00:11:52.348Z,2.60
2022-08-28T00:12:27.106Z,2.50
2022-08-28T00:13:01.850Z,2.70
2022-08-28T00:13:36.602Z,2.30
2022-08-28T00:14:11.341Z,2.40
2022-08-28T00:14:46.121Z,2.50
2022-08-28T00:15:20.871Z,2.40
2022-08-28T00:15:55.732Z,2.40
2022-08-28T00:16:30.750Z,2.60
2022-08-28T00:17:05.474Z,2.80
2022-08-28T00:17:40.215Z,2.20
2022-08-28T00:18:15.024Z,2.30
2022-08-28T00:18:49.785Z,2.20
2022-08-28T00:19:24.552Z,2.50
2022-08-28T00:19:59.303Z,2.40
2022-08-28T00:20:34.071Z,2.50
2022-08-28T00:21:08.815Z,3.00
2022-08-28T00:21:43.577Z,3.10
2022-08-28T00:22:18.315Z,2.80
2022-08-28T00:22:53.075Z,2.40
2022-08-28T00:23:42.357Z,2.90
2022-08-28T00:24:07.527Z,2.50
2022-08-28T00:24:42.266Z,2.90
2022-08-28T00:25:17.035Z,2.50
2022-08-28T00:25:51.786Z,2.70
2022-08-28T00:26:26.538Z,2.40
2022-08-28T00:27:01.306Z,2.40
2022-08-28T00:27:36.055Z,2.50
2022-08-28T00:28:10.847Z,3.00
2022-08-28T00:28:50.418Z,3.10
2022-08-28T00:29:25.177Z,2.70
2022-08-28T00:29:59.965Z,2.70
2022-08-28T00:30:34.691Z,3.00
2022-08-28T00:31:09.485Z,2.90
2022-08-28T00:31:45.162Z,2.70
2022-08-28T00:32:19.959Z,3.00
2022-08-28T00:32:54.702Z,2.80
2022-08-28T00:33:29.469Z,2.90
2022-08-28T00:34:04.227Z,3.00
2022-08-28T00:34:38.982Z,2.70
2022-08-28T00:35:13.741Z,2.70
2022-08-28T00:35:48.542Z,3.10
2022-08-28T00:36:24.169Z,2.90
2022-08-28T00:36:58.912Z,3.00
2022-08-28T00:37:33.652Z,2.80
2022-08-28T00:38:08.402Z,3.20
2022-08-28T00:38:44.486Z,3.20
2022-08-28T00:39:19.283Z,2.90
2022-08-28T00:39:54.060Z,2.70
2022-08-28T00:40:31.879Z,3.40
2022-08-28T00:41:07.882Z,3.00
2022-08-28T00:41:42.623Z,3.00
2022-08-28T00:42:17.623Z,3.40
2022-08-28T00:42:52.403Z,3.00
2022-08-28T00:43:27.164Z,3.00
2022-08-28T00:44:01.977Z,3.00
2022-08-28T00:44:36.846Z,3.20
2022-08-28T00:45:11.704Z,3.10
2022-08-28T00:45:46.519Z,2.90
2022-08-28T00:46:21.304Z,2.80
2022-08-28T00:46:56.043Z,3.10
2022-08-28T00:47:30.785Z,3.00
2022-08-28T00:48:05.623Z,3.20
2022-08-28T00:48:40.386Z,3.10
2022-08-28T00:49:15.226Z,2.80
2022-08-28T00:49:50.030Z,2.90
2022-08-28T00:50:24.788Z,3.70
2022-08-28T00:51:00.744Z,2.80
2022-08-28T00:51:35.665Z,3.00
2022-08-28T00:52:11.304Z,3.20
2022-08-28T00:52:47.070Z,3.40
2022-08-28T00:53:23.483Z,3.00
2022-08-28T00:54:06.850Z,3.10
2022-08-28T00:54:41.339Z,3.30
2022-08-28T00:55:20.969Z,2.70
2022-08-28T00:55:55.740Z,3.30
2022-08-28T00:56:30.490Z,2.70
2022-08-28T00:57:05.324Z,2.80
2022-08-28T00:57:40.049Z,3.20
2022-08-28T00:58:14.978Z,3.10
2022-08-28T00:58:49.791Z,2.80
2022-08-28T00:59:24.594Z,2.70
2022-08-28T00:59:59.339Z,3.20
2022-08-28T01:00:34.116Z,3.30
2022-08-28T01:01:08.873Z,2.60
2022-08-28T01:01:43.651Z,3.00
2022-08-28T01:02:18.546Z,3.10
2022-08-28T01:02:53.384Z,2.90
2022-08-28T01:03:28.169Z,2.90
2022-08-28T01:04:02.963Z,3.00
2022-08-28T01:04:37.703Z,2.80
2022-08-28T01:05:12.464Z,3.00
2022-08-28T01:05:47.234Z,3.20
2022-08-28T01:06:21.984Z,3.00
2022-08-28T01:06:56.786Z,3.10
2022-08-28T01:07:31.507Z,2.40
2022-08-28T01:08:06.338Z,2.80
2022-08-28T01:08:41.195Z,2.80
2022-08-28T01:09:18.881Z,2.90
2022-08-28T01:09:55.599Z,2.50
2022-08-28T01:10:30.355Z,2.80
2022-08-28T01:11:05.122Z,2.60
2022-08-28T01:11:39.875Z,2.70
2022-08-28T01:12:14.617Z,2.80
2022-08-28T01:12:49.361Z,2.70
2022-08-28T01:13:24.128Z,3.50
2022-08-28T01:13:58.897Z,3.00
2022-08-28T01:14:36.717Z,2.80
2022-08-28T01:15:11.548Z,2.70
2022-08-28T01:15:48.715Z,2.80
2022-08-28T01:16:29.264Z,2.60
2022-08-28T01:17:03.078Z,3.00
2022-08-28T01:17:37.830Z,2.50
2022-08-28T01:18:17.444Z,2.70
2022-08-28T01:18:52.179Z,2.90
2022-08-28T01:19:27.361Z,2.40
2022-08-28T01:20:02.131Z,2.70
2022-08-28T01:20:36.977Z,2.80
2022-08-28T01:21:11.761Z,2.60
2022-08-28T01:21:51.380Z,3.10
2022-08-28T01:22:26.168Z,2.80
2022-08-28T01:23:00.912Z,2.80
2022-08-28T01:23:35.651Z,2.60
2022-08-28T01:24:10.416Z,2.80
2022-08-28T01:24:45.160Z,3.00
2022-08-28T01:25:19.925Z,2.70
2022-08-28T01:25:54.682Z,2.60
2022-08-28T01:26:29.443Z,2.80
2022-08-28T01:27:04.225Z,2.70
2022-08-28T01:27:39.032Z,2.40
2022-08-28T01:28:13.894Z,2.50
2022-08-28T01:28:48.710Z,2.90
2022-08-28T01:29:23.464Z,2.90
2022-08-28T01:29:58.234Z,2.20
2022-08-28T01:30:33.004Z,3.00
2022-08-28T01:31:07.826Z,3.20
2022-08-28T01:31:42.688Z,3.20
2022-08-28T01:32:17.437Z,2.80
2022-08-28T01:32:52.196Z,2.60
2022-08-28T01:33:28.265Z,2.60
2022-08-28T01:34:03.095Z,2.40
2022-08-28T01:34:37.838Z,2.70
2022-08-28T01:35:12.907Z,2.40
2022-08-28T01:35:47.679Z,2.90
2022-08-28T01:36:22.427Z,2.70
2022-08-28T01:36:57.189Z,2.40
2022-08-28T01:37:33.298Z,2.60
2022-08-28T01:38:08.074Z,2.90
2022-08-28T01:38:42.819Z,2.80
2022-08-28T01:39:17.600Z,3.20
2022-08-28T01:39:52.383Z,2.80
2022-08-28T01:40:27.171Z,3.10
2022-08-28T01:41:01.940Z,2.40
2022-08-28T01:41:36.688Z,2.40
2022-08-28T01:42:11.431Z,2.50
2022-08-28T01:42:46.188Z,2.80
2022-08-28T01:43:20.940Z,2.70
2022-08-28T01:43:55.704Z,3.00
2022-08-28T01:44:30.482Z,2.90
2022-08-28T01:45:05.243Z,2.40
2022-08-28T01:45:40.001Z,2.80
2022-08-28T01:46:14.874Z,2.70
2022-08-28T01:46:49.664Z,2.90
2022-08-28T01:47:24.444Z,2.50
2022-08-28T01:47:59.183Z,2.70
2022-08-28T01:48:33.958Z,2.50
2022-08-28T01:49:08.693Z,2.90
2022-08-28T01:49:43.446Z,2.80
2022-08-28T01:50:18.203Z,2.60
2022-08-28T01:50:52.975Z,2.40
2022-08-28T01:51:27.704Z,2.70
2022-08-28T01:52:04.166Z,3.20
2022-08-28T01:52:38.934Z,2.80
2022-08-28T01:53:13.711Z,2.80
2022-08-28T01:53:48.453Z,2.70
2022-08-28T01:54:23.236Z,2.80
2022-08-28T01:54:58.108Z,2.70
2022-08-28T01:55:32.846Z,3.00
2022-08-28T01:56:07.587Z,2.30
2022-08-28T01:56:42.327Z,2.70
2022-08-28T01:57:17.084Z,2.90
2022-08-28T01:57:52.187Z,3.20
2022-08-28T01:58:26.916Z,2.50
2022-08-28T01:59:02.919Z,2.70
2022-08-28T01:59:37.681Z,2.40
2022-08-28T02:00:12.420Z,2.70
2022-08-28T02:00:47.179Z,3.00
2022-08-28T02:01:21.973Z,2.50
2022-08-28T02:01:56.803Z,3.30
2022-08-28T02:02:31.530Z,2.80
2022-08-28T02:03:06.310Z,2.60
2022-08-28T02:03:41.051Z,2.60
2022-08-28T02:04:15.890Z,3.00
2022-08-28T02:04:50.711Z,2.90
2022-08-28T02:05:25.511Z,2.80
2022-08-28T02:06:00.264Z,2.70
2022-08-28T02:06:35.023Z,2.70
2022-08-28T02:07:09.791Z,2.70
2022-08-28T02:07:44.552Z,2.90
2022-08-28T02:08:19.323Z,2.60
2022-08-28T02:08:54.082Z,2.80
2022-08-28T02:09:28.822Z,2.30
2022-08-28T02:10:03.574Z,2.40
2022-08-28T02:10:38.323Z,2.60
2022-08-28T02:11:13.079Z,2.80
2022-08-28T02:11:47.832Z,3.00
2022-08-28T02:12:22.576Z,2.90
2022-08-28T02:12:59.106Z,2.40
2022-08-28T02:13:34.034Z,2.60
2022-08-28T02:14:08.773Z,2.70
2022-08-28T02:14:43.548Z,3.10
2022-08-28T02:15:18.295Z,2.50
2022-08-28T02:15:53.579Z,2.50
2022-08-28T02:16:28.346Z,2.90
2022-08-28T02:17:03.107Z,2.80
2022-08-28T02:17:37.857Z,2.50
2022-08-28T02:18:12.729Z,2.20
2022-08-28T02:18:47.528Z,2.40
2022-08-28T02:19:22.275Z,2.80
2022-08-28T02:19:57.018Z,2.90
2022-08-28T02:20:31.797Z,2.90
2022-08-28T02:21:06.618Z,3.40
2022-08-28T02:21:41.375Z,2.40
2022-08-28T02:22:16.137Z,2.30
2022-08-28T02:22:50.950Z,2.50
2022-08-28T02:23:25.697Z,2.70
2022-08-28T02:24:00.519Z,2.60
2022-08-28T02:24:35.309Z,2.70
2022-08-28T02:25:11.929Z,2.70
2022-08-28T02:25:46.738Z,2.50
2022-08-28T02:26:24.509Z,2.40
2022-08-28T02:26:59.273Z,2.70
2022-08-28T02:27:34.040Z,2.70
2022-08-28T02:28:08.949Z,2.60
2022-08-28T02:28:43.749Z,2.50
2022-08-28T02:29:18.492Z,2.50
2022-08-28T02:29:53.242Z,2.50
2022-08-28T02:30:28.003Z,2.40
2022-08-28T02:31:02.888Z,2.60
2022-08-28T02:31:37.652Z,2.60
2022-08-28T02:32:12.415Z,2.60
2022-08-28T02:32:47.161Z,2.50
2022-08-28T02:33:21.933Z,2.60
2022-08-28T02:33:56.653Z,2.40
2022-08-28T02:34:31.544Z,2.40
2022-08-28T02:35:06.294Z,2.70
2022-08-28T02:35:45.924Z,2.70
2022-08-28T02:36:20.683Z,2.90
2022-08-28T02:36:55.435Z,2.70
2022-08-28T02:37:30.185Z,2.50
2022-08-28T02:38:06.976Z,2.30
2022-08-28T02:38:41.731Z,2.70
2022-08-28T02:39:16.505Z,2.50
2022-08-28T02:39:51.434Z,2.50
2022-08-28T02:40:26.361Z,2.80
2022-08-28T02:41:01.146Z,2.30
2022-08-28T02:41:39.091Z,2.50
2022-08-28T02:42:13.836Z,2.30
2022-08-28T02:42:49.779Z,2.10
2022-08-28T02:43:24.537Z,2.00
2022-08-28T02:43:59.309Z,2.20
2022-08-28T02:44:34.060Z,2.50
2022-08-28T02:45:08.816Z,2.50
2022-08-28T02:45:43.581Z,2.70
2022-08-28T02:46:18.369Z,2.50
2022-08-28T02:46:53.150Z,2.70
2022-08-28T02:47:29.410Z,2.40
2022-08-28T02:48:04.160Z,2.30
2022-08-28T02:48:43.779Z,2.80
2022-08-28T02:49:18.519Z,2.40
2022-08-28T02:49:53.310Z,2.60
2022-08-28T02:50:28.068Z,2.20
2022-08-28T02:51:02.821Z,2.50
2022-08-28T02:51:37.560Z,2.30
2022-08-28T02:52:12.321Z,2.20
2022-08-28T02:52:47.071Z,2.50
2022-08-28T02:53:21.992Z,2.50
2022-08-28T02:53:56.701Z,2.50
2022-08-28T02:54:31.452Z,2.80
2022-08-28T02:55:06.248Z,2.70
2022-08-28T02:55:41.004Z,2.20
2022-08-28T02:56:15.798Z,2.50
2022-08-28T02:56:50.567Z,2.60
2022-08-28T02:57:25.333Z,2.50
2022-08-28T02:58:00.104Z,3.20
2022-08-28T02:58:34.873Z,2.50
2022-08-28T02:59:09.639Z,2.30
2022-08-28T02:59:44.387Z,2.60
2022-08-28T03:00:19.156Z,2.40
2022-08-28T03:00:53.935Z,2.60
2022-08-28T03:01:28.711Z,2.70
2022-08-28T03:02:03.572Z,2.70
2022-08-28T03:02:38.355Z,2.20
2022-08-28T03:03:13.130Z,2.50
2022-08-28T03:03:47.877Z,2.70
2022-08-28T03:04:22.674Z,2.80
2022-08-28T03:04:57.442Z,2.60
2022-08-28T03:05:32.217Z,2.80
2022-08-28T03:06:07.000Z,2.70
2022-08-28T03:06:41.740Z,2.60
2022-08-28T03:07:16.532Z,3.10
2022-08-28T03:07:51.319Z,2.60
2022-08-28T03:08:27.288Z,2.50
2022-08-28T03:09:02.182Z,2.60
2022-08-28T03:09:36.923Z,2.70
2022-08-28T03:10:11.660Z,2.80
2022-08-28T03:10:46.423Z,2.70
2022-08-28T03:11:21.442Z,2.80
2022-08-28T03:11:56.200Z,2.50
2022-08-28T03:12:30.962Z,2.40
2022-08-28T03:13:05.742Z,2.50
2022-08-28T03:13:40.492Z,2.70
2022-08-28T03:14:15.262Z,3.20
2022-08-28T03:14:50.011Z,2.40
2022-08-28T03:15:24.781Z,3.20
2022-08-28T03:15:59.597Z,3.00
2022-08-28T03:16:34.427Z,2.60
2022-08-28T03:17:09.249Z,2.60
2022-08-28T03:17:44.019Z,3.10
2022-08-28T03:18:18.759Z,2.40
2022-08-28T03:18:53.505Z,2.90
2022-08-28T03:19:28.299Z,2.90
2022-08-28T03:20:03.023Z,2.60
2022-08-28T03:20:37.783Z,2.60
2022-08-28T03:21:14.745Z,2.60
2022-08-28T03:21:49.485Z,3.20
2022-08-28T03:22:27.686Z,2.60
2022-08-28T03:23:02.425Z,2.50
2022-08-28T03:23:37.175Z,3.20
2022-08-28T03:24:11.953Z,2.50
2022-08-28T03:24:50.435Z,2.60
2022-08-28T03:25:25.168Z,2.40
2022-08-28T03:25:59.947Z,2.60
2022-08-28T03:26:34.707Z,3.00
2022-08-28T03:27:10.280Z,2.60
2022-08-28T03:27:45.027Z,3.30
2022-08-28T03:28:21.439Z,2.90
2022-08-28T03:28:56.200Z,3.00
2022-08-28T03:29:34.342Z,3.00
2022-08-28T03:30:09.078Z,2.70
2022-08-28T03:30:43.891Z,2.90
2022-08-28T03:31:18.715Z,3.10
2022-08-28T03:31:53.458Z,2.80
2022-08-28T03:32:29.378Z,2.40
2022-08-28T03:33:04.158Z,2.50
2022-08-28T03:33:42.759Z,2.80
2022-08-28T03:34:17.720Z,2.50
2022-08-28T03:34:52.470Z,2.70
2022-08-28T03:35:27.231Z,2.70
2022-08-28T03:36:04.591Z,2.50
2022-08-28T03:36:39.603Z,2.80
2022-08-28T03:37:14.375Z,3.00
2022-08-28T03:37:49.121Z,2.60
2022-08-28T03:38:25.332Z,3.00
2022-08-28T03:39:00.507Z,2.80
2022-08-28T03:39:35.264Z,2.90
2022-08-28T03:40:10.049Z,3.20
2022-08-28T03:40:44.823Z,2.80
2022-08-28T03:41:20.667Z,3.30
2022-08-28T03:41:55.393Z,3.00
2022-08-28T03:42:30.172Z,3.10
2022-08-28T03:43:07.184Z,2.70
2022-08-28T03:43:41.958Z,3.00
2022-08-28T03:44:16.745Z,3.20
2022-08-28T03:44:51.536Z,2.60
2022-08-28T03:45:26.314Z,2.70
2022-08-28T03:46:01.465Z,3.10
2022-08-28T03:46:36.276Z,2.80
2022-08-28T03:47:11.227Z,2.80
2022-08-28T03:47:46.047Z,2.80
2022-08-28T03:48:21.181Z,2.50
2022-08-28T03:48:55.937Z,2.50
2022-08-28T03:49:30.684Z,2.70
2022-08-28T03:50:05.426Z,2.60
2022-08-28T03:50:40.169Z,2.80
2022-08-28T03:51:15.803Z,2.60
2022-08-28T03:51:52.327Z,2.70
2022-08-28T03:52:27.057Z,2.90
2022-08-28T03:53:01.809Z,2.50
2022-08-28T03:53:36.541Z,2.30
2022-08-28T03:54:11.486Z,2.50
2022-08-28T03:54:46.229Z,2.30
2022-08-28T03:55:20.968Z,2.20
2022-08-28T03:55:55.728Z,2.20
2022-08-28T03:56:30.479Z,2.00
2022-08-28T03:57:05.269Z,2.00
2022-08-28T03:57:40.022Z,2.00
2022-08-28T03:58:19.093Z,2.10
2022-08-28T03:58:54.013Z,2.30
2022-08-28T03:59:31.770Z,2.20
2022-08-28T04:00:08.351Z,2.00
2022-08-28T04:00:43.082Z,2.10
2022-08-28T04:01:20.227Z,1.90
2022-08-28T04:01:54.964Z,2.00
2022-08-28T04:02:31.153Z,2.10
2022-08-28T04:03:05.945Z,2.10
2022-08-28T04:03:40.771Z,2.00
2022-08-28T04:04:15.512Z,1.70
2022-08-28T04:04:50.263Z,1.80
2022-08-28T04:05:25.019Z,2.20
2022-08-28T04:05:59.840Z,1.70
2022-08-28T04:06:34.574Z,1.70
2022-08-28T04:07:10.904Z,1.90
2022-08-28T04:07:45.634Z,1.50
2022-08-28T04:08:20.752Z,1.70
2022-08-28T04:08:55.496Z,1.60
2022-08-28T04:09:35.056Z,1.40
2022-08-28T04:10:09.803Z,1.60
2022-08-28T04:10:44.547Z,1.70
2022-08-28T04:11:19.327Z,1.50
2022-08-28T04:11:54.075Z,1.40
2022-08-28T04:12:28.818Z,1.50
2022-08-28T04:13:07.536Z,1.70
2022-08-28T04:13:42.276Z,1.70
2022-08-28T04:14:17.018Z,1.80
2022-08-28T04:14:51.759Z,2.10
2022-08-28T04:15:26.488Z,1.70
2022-08-28T04:16:01.256Z,1.80
2022-08-28T04:16:36.076Z,2.10
2022-08-28T04:17:10.898Z,1.60
2022-08-28T04:17:45.643Z,1.40
2022-08-28T04:18:20.389Z,2.00
2022-08-28T04:18:55.130Z,2.20
2022-08-28T04:19:29.904Z,1.70
2022-08-28T04:20:04.642Z,1.80
2022-08-28T04:20:39.393Z,1.70
2022-08-28T04:21:14.131Z,2.00
2022-08-28T04:21:48.881Z,1.90
2022-08-28T04:22:23.763Z,1.60
2022-08-28T04:22:58.492Z,1.70
2022-08-28T04:23:35.171Z,1.90
2022-08-28T04:24:10.029Z,1.90
2022-08-28T04:24:44.803Z,1.60
2022-08-28T04:25:19.543Z,1.50
2022-08-28T04:25:54.497Z,1.90
2022-08-28T04:26:29.314Z,1.80
2022-08-28T04:27:04.114Z,1.50
2022-08-28T04:27:38.916Z,1.50
2022-08-28T04:28:14.757Z,1.60
2022-08-28T04:28:49.483Z,1.60
2022-08-28T04:29:27.366Z,1.60
2022-08-28T04:30:02.122Z,1.70
2022-08-28T04:30:36.978Z,1.50
2022-08-28T04:31:11.736Z,1.50
2022-08-28T04:31:46.567Z,1.50
2022-08-28T04:32:21.301Z,1.40
2022-08-28T04:32:56.036Z,1.40
2022-08-28T04:33:30.785Z,1.60
2022-08-28T04:34:05.519Z,1.30
2022-08-28T04:34:40.301Z,1.40
2022-08-28T04:35:15.087Z,1.40
2022-08-28T04:35:49.868Z,1.50
2022-08-28T04:36:24.577Z,1.70
2022-08-28T04:36:59.344Z,1.20
2022-08-28T04:37:34.103Z,1.40
2022-08-28T04:38:08.883Z,1.30
2022-08-28T04:38:44.197Z,1.20
2022-08-28T04:39:19.048Z,1.80
2022-08-28T04:39:53.842Z,1.40
2022-08-28T04:40:28.622Z,1.20
2022-08-28T04:41:03.359Z,1.50
2022-08-28T04:41:38.100Z,1.30
2022-08-28T04:42:12.840Z,1.00
2022-08-28T04:42:47.589Z,1.20
2022-08-28T04:43:22.321Z,1.00
2022-08-28T04:43:57.073Z,1.10
2022-08-28T04:44:31.829Z,1.40
2022-08-28T04:45:06.577Z,1.20
2022-08-28T04:45:41.391Z,1.20
2022-08-28T04:46:16.299Z,1.10
2022-08-28T04:46:51.052Z,1.10
2022-08-28T04:47:26.252Z,1.00
2022-08-28T04:48:03.306Z,0.90
2022-08-28T04:48:40.352Z,1.00
2022-08-28T04:49:15.114Z,1.40
2022-08-28T04:49:49.884Z,1.30
2022-08-28T04:50:24.637Z,1.10
2022-08-28T04:50:59.383Z,0.90
2022-08-28T04:51:34.915Z,1.00
2022-08-28T04:52:11.584Z,1.00
2022-08-28T04:52:46.361Z,1.00
2022-08-28T04:53:21.485Z,1.00
2022-08-28T04:53:56.253Z,1.00
2022-08-28T04:54:31.006Z,0.90
2022-08-28T04:55:05.745Z,0.90
2022-08-28T04:55:54.675Z,0.90
2022-08-28T04:56:20.151Z,0.80
2022-08-28T04:56:54.867Z,1.00
2022-08-28T04:57:32.209Z,1.00
2022-08-28T04:58:09.281Z,1.00
2022-08-28T04:58:44.008Z,0.80
2022-08-28T04:59:18.761Z,0.90
2022-08-28T04:59:53.489Z,0.80
2022-08-28T05:00:28.307Z,1.00
2022-08-28T05:01:03.152Z,0.80
2022-08-28T05:01:37.930Z,1.00
2022-08-28T05:02:12.747Z,0.80
2022-08-28T05:02:47.461Z,0.80
2022-08-28T05:03:23.087Z,0.80
2022-08-28T05:03:57.876Z,0.90
2022-08-28T05:04:32.621Z,0.80
2022-08-28T05:05:07.360Z,0.80
2022-08-28T05:05:42.142Z,0.80
2022-08-28T05:06:17.698Z,0.70
2022-08-28T05:06:53.122Z,0.80
2022-08-28T05:07:27.966Z,0.70
2022-08-28T05:08:02.732Z,0.70
2022-08-28T05:08:37.483Z,0.90
2022-08-28T05:09:12.229Z,0.70
2022-08-28T05:09:46.982Z,0.70
2022-08-28T05:10:21.733Z,0.80
2022-08-28T05:10:56.502Z,0.80
2022-08-28T05:11:34.314Z,0.70
2022-08-28T05:12:09.701Z,0.70
2022-08-28T05:12:44.434Z,0.70
2022-08-28T05:13:19.205Z,0.70
2022-08-28T05:13:54.479Z,0.80
2022-08-28T05:14:29.272Z,0.80
2022-08-28T05:15:04.024Z,0.80
2022-08-28T05:15:38.916Z,0.80
2022-08-28T05:16:13.719Z,0.80
2022-08-28T05:16:49.125Z,0.60
2022-08-28T05:17:24.826Z,0.80
2022-08-28T05:18:00.920Z,0.80
2022-08-28T05:18:35.670Z,0.70
2022-08-28T05:19:10.416Z,0.70
2022-08-28T05:19:45.166Z,0.70
2022-08-28T05:20:19.908Z,0.70
2022-08-28T05:20:54.670Z,0.60
2022-08-28T05:21:29.859Z,0.50
2022-08-28T05:22:04.608Z,0.60
2022-08-28T05:22:39.392Z,0.70
2022-08-28T05:23:14.130Z,0.50
2022-08-28T05:23:48.880Z,0.60
2022-08-28T05:24:24.579Z,0.50
2022-08-28T05:25:00.121Z,0.70
2022-08-28T05:25:34.861Z,0.70
2022-08-28T05:26:09.631Z,0.80
2022-08-28T05:26:44.398Z,0.70
2022-08-28T05:27:23.071Z,0.80
2022-08-28T05:27:58.821Z,0.80
2022-08-28T05:28:33.663Z,0.60
2022-08-28T05:29:08.403Z,0.50
2022-08-28T05:29:43.170Z,0.60
2022-08-28T05:30:17.933Z,0.70
2022-08-28T05:30:52.754Z,0.80
2022-08-28T05:31:27.574Z,0.60
2022-08-28T05:32:02.451Z,0.80
2022-08-28T05:32:37.183Z,0.70
2022-08-28T05:33:11.952Z,0.70
2022-08-28T05:33:46.694Z,0.80
2022-08-28T05:34:21.474Z,1.00
2022-08-28T05:34:56.236Z,1.00
2022-08-28T05:35:30.985Z,0.80
2022-08-28T05:36:05.753Z,1.00
2022-08-28T05:36:40.503Z,0.90
2022-08-28T05:37:19.444Z,1.10
2022-08-28T05:37:54.448Z,1.30
2022-08-28T05:38:29.183Z,1.20
2022-08-28T05:39:03.945Z,1.30
2022-08-28T05:39:38.715Z,1.50
2022-08-28T05:40:14.472Z,1.70
2022-08-28T05:40:49.524Z,1.80
2022-08-28T05:41:24.308Z,1.60
2022-08-28T05:41:59.068Z,1.40
2022-08-28T05:42:38.391Z,1.60
2022-08-28T05:43:13.480Z,1.30
2022-08-28T05:43:48.243Z,1.70
2022-08-28T05:44:23.288Z,1.70
2022-08-28T05:45:00.104Z,1.60
2022-08-28T05:45:34.883Z,1.60
2022-08-28T05:46:09.717Z,1.50
2022-08-28T05:46:44.500Z,1.60
2022-08-28T05:47:21.515Z,1.80
2022-08-28T05:47:56.398Z,1.30
2022-08-28T05:48:31.181Z,1.60
2022-08-28T05:49:10.789Z,1.60
2022-08-28T05:49:45.560Z,1.80
2022-08-28T05:50:20.298Z,1.90
2022-08-28T05:50:55.051Z,1.70
2022-08-28T05:51:29.791Z,1.80
2022-08-28T05:52:04.531Z,1.70
2022-08-28T05:52:39.277Z,1.90
2022-08-28T05:53:14.009Z,1.70
2022-08-28T05:53:48.751Z,1.70
2022-08-28T05:54:23.502Z,1.80
2022-08-28T05:54:58.254Z,1.70
2022-08-28T05:55:33.028Z,2.00
2022-08-28T05:56:07.783Z,1.60
2022-08-28T05:56:42.543Z,2.00
2022-08-28T05:57:17.290Z,1.90
2022-08-28T05:57:52.044Z,2.20
2022-08-28T05:58:26.815Z,2.10
2022-08-28T05:59:01.569Z,2.20
2022-08-28T05:59:36.317Z,2.20
2022-08-28T06:00:11.068Z,2.20
2022-08-28T06:00:45.832Z,2.20
2022-08-28T06:01:20.555Z,2.40
2022-08-28T06:01:55.359Z,2.20
2022-08-28T06:02:30.091Z,2.20
2022-08-28T06:03:04.826Z,2.80
2022-08-28T06:03:39.614Z,2.40
2022-08-28T06:04:14.482Z,2.70
2022-08-28T06:04:49.265Z,2.20
2022-08-28T06:05:24.015Z,2.70
2022-08-28T06:05:58.767Z,2.40
2022-08-28T06:06:33.535Z,2.50
2022-08-28T06:07:08.317Z,2.50
2022-08-28T06:07:43.047Z,2.40
2022-08-28T06:08:17.798Z,2.80
2022-08-28T06:08:58.097Z,2.40
2022-08-28T06:09:32.197Z,2.50
2022-08-28T06:10:06.938Z,2.20
2022-08-28T06:10:45.937Z,2.70
2022-08-28T06:11:25.053Z,2.50
2022-08-28T06:11:59.802Z,2.80
2022-08-28T06:12:34.569Z,2.50
2022-08-28T06:13:09.651Z,2.60
2022-08-28T06:13:44.396Z,2.60
2022-08-28T06:14:19.392Z,2.20
2022-08-28T06:14:56.081Z,2.40
2022-08-28T06:15:31.700Z,2.40
2022-08-28T06:16:06.578Z,2.40
2022-08-28T06:16:42.875Z,2.90
2022-08-28T06:17:17.616Z,2.90
2022-08-28T06:17:57.225Z,2.50
2022-08-28T06:18:31.968Z,2.40
2022-08-28T06:19:07.353Z,2.80
2022-08-28T06:19:42.083Z,2.80
2022-08-28T06:20:16.940Z,2.80
2022-08-28T06:20:51.700Z,2.30
2022-08-28T06:21:26.634Z,2.70
2022-08-28T06:22:01.406Z,2.40
2022-08-28T06:22:40.995Z,2.60
2022-08-28T06:23:15.735Z,2.70
2022-08-28T06:23:55.364Z,2.50
2022-08-28T06:24:30.094Z,2.40
2022-08-28T06:25:07.891Z,2.50
2022-08-28T06:25:42.852Z,2.40
2022-08-28T06:26:18.587Z,2.50
2022-08-28T06:26:53.338Z,2.30
2022-08-28T06:27:32.895Z,2.10
2022-08-28T06:28:07.647Z,2.10
2022-08-28T06:28:43.946Z,2.60
2022-08-28T06:29:21.037Z,2.40
2022-08-28T06:29:56.788Z,2.20
2022-08-28T06:30:31.552Z,2.20
2022-08-28T06:31:23.393Z,2.40
2022-08-28T06:31:46.090Z,2.30
2022-08-28T06:32:26.057Z,2.20
2022-08-28T06:33:00.861Z,2.40
2022-08-28T06:33:35.603Z,2.30
2022-08-28T06:34:10.350Z,2.10
2022-08-28T06:34:45.082Z,2.30
2022-08-28T06:35:19.841Z,2.30
2022-08-28T06:35:54.613Z,2.50
2022-08-28T06:36:29.350Z,2.10
2022-08-28T06:37:04.131Z,2.40
2022-08-28T06:37:38.861Z,1.80
2022-08-28T06:38:13.701Z,2.80
2022-08-28T06:38:48.512Z,1.90
2022-08-28T06:39:23.262Z,2.60
2022-08-28T06:39:58.062Z,2.60
2022-08-28T06:40:32.840Z,2.20
2022-08-28T06:41:07.577Z,2.50
2022-08-28T06:41:42.314Z,2.60
2022-08-28T06:42:17.052Z,2.40
2022-08-28T06:42:51.819Z,2.60
2022-08-28T06:43:26.551Z,2.50
2022-08-28T06:44:01.292Z,2.20
2022-08-28T06:44:36.052Z,2.70
2022-08-28T06:45:10.801Z,2.20
2022-08-28T06:45:45.628Z,2.40
2022-08-28T06:46:20.409Z,2.30
2022-08-28T06:46:55.175Z,2.80
2022-08-28T06:47:29.926Z,2.70
2022-08-28T06:48:04.706Z,2.40
2022-08-28T06:48:39.435Z,2.00
2022-08-28T06:49:14.976Z,2.40
2022-08-28T06:49:49.825Z,2.30
2022-08-28T06:50:24.588Z,2.00
2022-08-28T06:50:59.375Z,2.30
2022-08-28T06:51:34.127Z,2.20
2022-08-28T06:52:08.878Z,2.40
2022-08-28T06:52:43.618Z,2.50
2022-08-28T06:53:18.377Z,2.30
2022-08-28T06:53:53.127Z,2.20
2022-08-28T06:54:27.974Z,2.50
2022-08-28T06:55:02.718Z,2.60
2022-08-28T06:55:37.968Z,2.10
2022-08-28T06:56:18.419Z,2.00
2022-08-28T06:56:53.068Z,2.30
2022-08-28T06:57:27.821Z,2.60
2022-08-28T06:58:02.559Z,2.40
2022-08-28T06:58:37.300Z,2.20
2022-08-28T06:59:12.064Z,2.60
2022-08-28T06:59:46.802Z,1.80
2022-08-28T07:00:21.586Z,2.40
2022-08-28T07:01:02.752Z,2.70
2022-08-28T07:01:36.176Z,1.90
2022-08-28T07:02:10.990Z,1.80
2022-08-28T07:02:45.886Z,2.20
2022-08-28T07:03:20.618Z,2.30
2022-08-28T07:03:55.351Z,2.20
2022-08-28T07:04:30.116Z,2.10
2022-08-28T07:05:05.753Z,2.40
2022-08-28T07:05:40.551Z,1.90
2022-08-28T07:06:15.350Z,2.10
2022-08-28T07:06:53.687Z,2.30
2022-08-28T07:07:32.451Z,2.30
2022-08-28T07:08:07.514Z,2.80
2022-08-28T07:08:42.265Z,1.90
2022-08-28T07:09:17.017Z,2.10
2022-08-28T07:09:51.763Z,2.40
2022-08-28T07:10:26.504Z,2.10
2022-08-28T07:11:01.496Z,2.40
2022-08-28T07:11:36.292Z,2.50
2022-08-28T07:12:11.076Z,1.80
2022-08-28T07:12:45.817Z,2.40
2022-08-28T07:13:20.624Z,1.90
2022-08-28T07:13:55.412Z,2.00
2022-08-28T07:14:30.189Z,1.70
2022-08-28T07:15:04.936Z,2.30
2022-08-28T07:15:41.895Z,2.40
2022-08-28T07:16:16.804Z,2.00
2022-08-28T07:16:51.735Z,2.40
2022-08-28T07:17:26.710Z,1.70
2022-08-28T07:18:01.458Z,2.00
2022-08-28T07:18:36.202Z,1.90
2022-08-28T07:19:10.933Z,2.10
2022-08-28T07:19:45.680Z,2.00
2022-08-28T07:20:20.439Z,2.40
2022-08-28T07:20:57.571Z,2.00
2022-08-28T07:21:32.422Z,2.30
2022-08-28T07:22:11.602Z,2.10
2022-08-28T07:22:46.357Z,1.90
2022-08-28T07:23:21.135Z,2.30
2022-08-28T07:23:55.881Z,2.10
2022-08-28T07:24:30.652Z,2.30
2022-08-28T07:25:05.394Z,2.10
2022-08-28T07:25:40.143Z,2.60
2022-08-28T07:26:14.913Z,1.90
2022-08-28T07:26:49.674Z,1.90
2022-08-28T07:27:24.486Z,2.30
2022-08-28T07:27:59.207Z,2.30
2022-08-28T07:28:34.008Z,2.30
2022-08-28T07:29:10.174Z,1.70
2022-08-28T07:29:45.345Z,2.10
2022-08-28T07:30:20.094Z,2.50
2022-08-28T07:30:56.345Z,2.10
2022-08-28T07:31:31.173Z,2.20
2022-08-28T07:32:05.935Z,2.40
2022-08-28T07:32:40.680Z,2.40
2022-08-28T07:33:15.416Z,2.60
2022-08-28T07:33:53.533Z,2.10
2022-08-28T07:34:28.828Z,2.50
2022-08-28T07:35:03.585Z,2.20
2022-08-28T07:35:38.397Z,2.20
2022-08-28T07:36:16.036Z,1.80
2022-08-28T07:36:52.847Z,2.40
2022-08-28T07:37:27.589Z,2.30
2022-08-28T07:38:02.339Z,2.80
2022-08-28T07:38:37.099Z,2.70
2022-08-28T07:39:11.848Z,3.00
2022-08-28T07:39:46.584Z,2.60
2022-08-28T07:40:21.369Z,2.50
2022-08-28T07:40:56.115Z,2.10
2022-08-28T07:41:30.873Z,3.20
2022-08-28T07:42:05.630Z,2.50
2022-08-28T07:42:40.372Z,2.20
2022-08-28T07:43:15.112Z,2.30
2022-08-28T07:43:49.851Z,2.20
2022-08-28T07:44:24.621Z,2.40
2022-08-28T07:44:59.362Z,2.40
2022-08-28T07:45:34.120Z,2.00
2022-08-28T07:46:09.008Z,2.30
2022-08-28T07:46:43.799Z,2.20
2022-08-28T07:47:18.533Z,2.30
2022-08-28T07:47:53.281Z,2.20